createdAt,value
2022-10-24T00:01:21.511Z,2.87
2022-10-24T00:03:49.075Z,3.87
2022-10-24T00:06:15.700Z,3.23
2022-10-24T00:08:42.372Z,3.00
2022-10-24T00:11:08.916Z,3.30
2022-10-24T00:13:35.521Z,3.73
2022-10-24T00:16:02.093Z,2.93
2022-10-24T00:18:28.662Z,3.20
2022-10-24T00:20:55.238Z,3.60
2022-10-24T00:23:21.776Z,3.47
2022-10-24T00:25:48.316Z,2.50
2022-10-24T00:28:14.878Z,3.33
2022-10-24T00:30:41.441Z,3.17
2022-10-24T00:33:08.140Z,3.33
2022-10-24T00:35:34.664Z,3.77
2022-10-24T00:38:01.239Z,2.93
2022-10-24T00:40:27.799Z,3.20
2022-10-24T00:42:54.399Z,3.17
2022-10-24T00:45:21.126Z,2.53
2022-10-24T00:47:47.785Z,3.50
2022-10-24T00:50:14.318Z,3.60
2022-10-24T00:52:40.813Z,2.90
2022-10-24T00:55:07.366Z,3.30
2022-10-24T00:57:33.921Z,3.00
2022-10-24T01:00:00.491Z,3.20
2022-10-24T01:02:27.086Z,3.80
2022-10-24T01:04:55.019Z,3.23
2022-10-24T01:07:21.595Z,3.63
2022-10-24T01:09:48.462Z,2.93
2022-10-24T01:12:15.117Z,3.27
2022-10-24T01:14:41.654Z,3.37
2022-10-24T01:17:08.410Z,2.63
2022-10-24T01:19:34.978Z,3.53
2022-10-24T01:22:01.483Z,2.80
2022-10-24T01:24:28.010Z,3.30
2022-10-24T01:26:54.729Z,3.30
2022-10-24T01:29:22.574Z,3.63
2022-10-24T01:31:49.107Z,2.90
2022-10-24T01:34:15.676Z,3.00
2022-10-24T01:36:42.292Z,2.67
2022-10-24T01:39:08.828Z,2.80
2022-10-24T01:41:35.327Z,2.67
2022-10-24T01:44:02.645Z,3.40
2022-10-24T01:46:29.269Z,4.23
2022-10-24T01:48:55.757Z,3.03
2022-10-24T01:51:22.306Z,2.60
2022-10-24T01:53:48.869Z,2.90
2022-10-24T01:56:15.371Z,3.03
2022-10-24T01:58:41.900Z,3.00
2022-10-24T02:01:08.441Z,3.30
2022-10-24T02:03:35.283Z,3.30
2022-10-24T02:06:01.797Z,3.13
2022-10-24T02:08:28.379Z,2.90
2022-10-24T02:10:54.915Z,3.00
2022-10-24T02:13:21.445Z,4.17
2022-10-24T02:15:47.933Z,2.80
2022-10-24T02:18:14.476Z,3.23
2022-10-24T02:20:41.050Z,3.13
2022-10-24T02:23:07.673Z,3.07
2022-10-24T02:25:34.750Z,2.13
2022-10-24T02:28:01.314Z,3.30
2022-10-24T02:30:27.858Z,3.00
2022-10-24T02:32:54.560Z,2.63
2022-10-24T02:35:21.147Z,3.33
2022-10-24T02:37:47.812Z,2.97
2022-10-24T02:40:14.473Z,2.93
2022-10-24T02:42:41.001Z,3.13
2022-10-24T02:45:07.938Z,2.60
2022-10-24T02:47:34.462Z,3.27
2022-10-24T02:50:00.964Z,2.67
2022-10-24T02:52:27.473Z,3.00
2022-10-24T02:54:54.072Z,2.97
2022-10-24T02:57:21.826Z,2.53
2022-10-24T02:59:48.392Z,2.90
2022-10-24T03:02:14.890Z,2.47
2022-10-24T03:04:41.385Z,3.47
2022-10-24T03:07:07.939Z,2.73
2022-10-24T03:09:34.457Z,3.23
2022-10-24T03:12:01.041Z,2.57
2022-10-24T03:14:27.620Z,3.20
2022-10-24T03:16:54.193Z,3.10
2022-10-24T03:19:20.793Z,2.80
2022-10-24T03:21:47.278Z,3.20
2022-10-24T03:24:17.024Z,2.57
2022-10-24T03:26:52.142Z,2.87
2022-10-24T03:29:18.696Z,3.00
2022-10-24T03:31:45.209Z,3.33
2022-10-24T03:34:11.731Z,3.90
2022-10-24T03:36:38.273Z,3.57
2022-10-24T03:39:04.851Z,3.10
2022-10-24T03:41:31.357Z,4.03
2022-10-24T03:43:58.074Z,3.60
2022-10-24T03:46:24.720Z,2.90
2022-10-24T03:48:51.315Z,3.27
2022-10-24T03:51:17.854Z,3.50
2022-10-24T03:53:44.366Z,3.43
2022-10-24T03:56:10.897Z,3.23
2022-10-24T03:58:37.401Z,3.20
2022-10-24T04:01:04.046Z,3.37
2022-10-24T04:03:30.678Z,2.80
2022-10-24T04:05:57.206Z,3.10
2022-10-24T04:08:23.744Z,2.83
2022-10-24T04:10:50.509Z,3.30
2022-10-24T04:13:17.056Z,3.87
2022-10-24T04:15:43.541Z,3.20
2022-10-24T04:18:10.112Z,3.00
2022-10-24T04:20:36.692Z,3.13
2022-10-24T04:23:04.523Z,3.60
2022-10-24T04:25:31.357Z,3.00
2022-10-24T04:27:57.883Z,2.17
2022-10-24T04:30:24.399Z,3.47
2022-10-24T04:32:50.990Z,2.67
2022-10-24T04:35:17.589Z,2.33
2022-10-24T04:37:44.159Z,3.00
2022-10-24T04:40:10.850Z,3.50
2022-10-24T04:42:37.462Z,2.73
2022-10-24T04:45:04.177Z,2.90
2022-10-24T04:47:30.707Z,2.73
2022-10-24T04:49:57.315Z,3.23
2022-10-24T04:52:23.873Z,3.20
2022-10-24T04:54:50.558Z,3.00
2022-10-24T04:57:17.073Z,2.40
2022-10-24T04:59:43.631Z,2.50
2022-10-24T05:02:10.231Z,2.57
2022-10-24T05:04:36.774Z,2.23
2022-10-24T05:07:03.319Z,2.20
2022-10-24T05:09:29.875Z,1.70
2022-10-24T05:11:56.594Z,2.03
2022-10-24T05:14:23.191Z,2.43
2022-10-24T05:16:49.785Z,2.00
2022-10-24T05:19:16.366Z,2.83
2022-10-24T05:21:42.901Z,2.13
2022-10-24T05:24:09.373Z,2.07
2022-10-24T05:26:36.162Z,2.77
2022-10-24T05:29:02.712Z,2.03
2022-10-24T05:31:29.268Z,1.43
2022-10-24T05:33:55.765Z,2.50
2022-10-24T05:36:22.469Z,1.30
2022-10-24T05:38:49.104Z,1.90
2022-10-24T05:41:15.705Z,2.43
2022-10-24T05:43:42.189Z,1.70
2022-10-24T05:46:10.093Z,2.03
2022-10-24T05:48:36.589Z,2.00
2022-10-24T05:51:03.221Z,2.17
2022-10-24T05:53:29.798Z,1.63
2022-10-24T05:55:56.318Z,2.10
2022-10-24T05:58:22.941Z,1.93
2022-10-24T06:00:53.514Z,2.00
2022-10-24T06:03:20.775Z,1.60
2022-10-24T06:05:47.329Z,2.43
2022-10-24T06:08:13.853Z,2.27
2022-10-24T06:10:40.496Z,1.47
2022-10-24T06:13:07.093Z,1.50
2022-10-24T06:15:33.661Z,1.73
2022-10-24T06:18:00.177Z,2.30
2022-10-24T06:20:26.747Z,1.93
2022-10-24T06:22:53.274Z,1.60
2022-10-24T06:25:19.845Z,1.70
2022-10-24T06:27:46.508Z,1.60
2022-10-24T06:30:13.033Z,1.57
2022-10-24T06:32:42.200Z,2.17
2022-10-24T06:35:13.240Z,1.70
2022-10-24T06:37:41.793Z,1.43
2022-10-24T06:40:10.937Z,1.80
2022-10-24T06:42:37.488Z,1.63
2022-10-24T06:45:04.072Z,1.43
2022-10-24T06:47:30.600Z,1.67
2022-10-24T06:49:57.157Z,1.40
2022-10-24T06:52:26.945Z,1.43
2022-10-24T06:54:53.482Z,1.90
2022-10-24T06:57:20.060Z,1.73
2022-10-24T06:59:46.592Z,1.70
2022-10-24T07:02:13.250Z,1.67
2022-10-24T07:04:39.888Z,1.83
2022-10-24T07:07:06.415Z,1.40
2022-10-24T07:09:32.942Z,1.90
2022-10-24T07:11:59.494Z,1.87
2022-10-24T07:14:26.069Z,1.63
2022-10-24T07:16:52.611Z,1.30
2022-10-24T07:19:19.157Z,1.80
2022-10-24T07:21:45.768Z,2.30
2022-10-24T07:24:12.371Z,2.10
2022-10-24T07:26:39.021Z,2.30
2022-10-24T07:29:05.669Z,1.20
2022-10-24T07:31:32.439Z,1.53
2022-10-24T07:33:59.018Z,1.40
2022-10-24T07:36:25.633Z,1.60
2022-10-24T07:38:52.145Z,1.80
2022-10-24T07:41:18.688Z,1.80
2022-10-24T07:43:46.150Z,1.40
2022-10-24T07:46:12.669Z,1.50
2022-10-24T07:48:39.831Z,1.30
2022-10-24T07:51:06.760Z,1.83
2022-10-24T07:53:33.320Z,1.80
2022-10-24T07:56:00.119Z,1.60
2022-10-24T07:58:26.677Z,1.30
2022-10-24T08:00:53.330Z,1.40
2022-10-24T08:03:19.885Z,1.47
2022-10-24T08:05:46.408Z,1.80
2022-10-24T08:08:30.670Z,1.50
2022-10-24T08:13:30.893Z,1.63
2022-10-24T08:15:57.808Z,1.20
2022-10-24T08:18:24.396Z,1.40
2022-10-24T08:20:50.941Z,1.57
2022-10-24T08:23:19.953Z,1.27
2022-10-24T08:25:49.774Z,2.20
2022-10-24T08:28:16.318Z,1.87
2022-10-24T08:30:42.893Z,1.50
2022-10-24T08:33:09.484Z,1.43
2022-10-24T08:35:36.063Z,1.60
2022-10-24T08:38:02.891Z,1.57
2022-10-24T08:40:29.453Z,1.70
2022-10-24T08:42:56.055Z,1.60
2022-10-24T08:45:22.623Z,1.93
2022-10-24T08:47:49.194Z,1.40
2022-10-24T08:50:15.686Z,1.93
2022-10-24T08:52:42.614Z,1.03
2022-10-24T08:55:20.275Z,1.50
2022-10-24T08:57:52.124Z,1.40
2022-10-24T09:00:18.631Z,1.67
2022-10-24T09:02:45.746Z,0.83
2022-10-24T09:05:12.553Z,1.40
2022-10-24T09:07:39.043Z,1.77
2022-10-24T09:10:05.988Z,1.20
2022-10-24T09:12:32.513Z,1.70
2022-10-24T09:14:59.191Z,1.00
2022-10-24T09:17:25.728Z,1.47
2022-10-24T09:19:52.426Z,1.93
2022-10-24T09:22:19.065Z,2.00
2022-10-24T09:24:45.709Z,1.37
2022-10-24T09:27:12.476Z,0.83
2022-10-24T09:29:40.102Z,1.60
2022-10-24T09:32:06.671Z,1.10
2022-10-24T09:34:33.227Z,1.40
2022-10-24T09:36:59.897Z,1.63
2022-10-24T09:39:26.730Z,1.20
2022-10-24T09:41:53.382Z,1.20
2022-10-24T09:44:19.909Z,1.10
2022-10-24T09:46:47.981Z,1.10
2022-10-24T09:49:14.717Z,1.00
2022-10-24T09:51:41.389Z,1.20
2022-10-24T09:54:07.873Z,1.53
2022-10-24T09:56:34.423Z,1.50
2022-10-24T09:59:00.937Z,1.33
2022-10-24T10:01:27.525Z,0.93
2022-10-24T10:03:54.187Z,1.20
2022-10-24T10:06:20.780Z,1.47
2022-10-24T10:08:47.282Z,1.20
2022-10-24T10:11:13.889Z,1.57
2022-10-24T10:13:42.258Z,1.37
2022-10-24T10:16:12.681Z,1.07
2022-10-24T10:18:42.157Z,2.70
2022-10-24T10:21:08.702Z,0.90
2022-10-24T10:23:36.251Z,1.30
2022-10-24T10:26:02.882Z,1.50
2022-10-24T10:28:29.532Z,1.67
2022-10-24T10:30:56.057Z,0.87
2022-10-24T10:33:22.609Z,1.30
2022-10-24T10:35:49.786Z,1.77
2022-10-24T10:38:16.301Z,1.30
2022-10-24T10:40:42.976Z,1.20
2022-10-24T10:43:09.621Z,1.20
2022-10-24T10:45:36.204Z,1.20
2022-10-24T10:48:02.805Z,1.00
2022-10-24T10:50:29.287Z,1.50
2022-10-24T10:52:56.071Z,1.40
2022-10-24T10:55:22.616Z,0.97
2022-10-24T10:57:49.304Z,1.07
2022-10-24T11:00:15.987Z,1.47
2022-10-24T11:02:42.816Z,1.63
2022-10-24T11:05:11.047Z,1.67
2022-10-24T11:07:37.578Z,0.70
2022-10-24T11:10:04.139Z,1.47
2022-10-24T11:12:30.628Z,2.10
2022-10-24T11:14:57.139Z,2.30
2022-10-24T11:17:23.753Z,1.67
2022-10-24T11:19:50.290Z,1.50
2022-10-24T11:22:16.881Z,0.90
2022-10-24T11:24:43.437Z,1.33
2022-10-24T11:27:10.007Z,1.67
2022-10-24T11:29:36.525Z,1.47
2022-10-24T11:34:32.547Z,1.03
2022-10-24T11:36:59.162Z,1.40
2022-10-24T11:39:25.884Z,1.53
2022-10-24T11:41:52.598Z,1.27
2022-10-24T11:44:19.415Z,2.10
2022-10-24T11:46:45.987Z,1.10
2022-10-24T11:49:12.477Z,1.10
2022-10-24T11:51:38.998Z,1.80
2022-10-24T11:54:05.545Z,1.33
2022-10-24T11:56:33.139Z,1.37
2022-10-24T11:58:59.636Z,1.40
2022-10-24T12:01:26.222Z,2.17
2022-10-24T12:03:53.080Z,1.40
2022-10-24T12:06:19.676Z,1.17
2022-10-24T12:08:46.287Z,1.40
2022-10-24T12:11:12.822Z,1.57
2022-10-24T12:13:39.325Z,1.17
2022-10-24T12:16:05.881Z,1.57
2022-10-24T12:18:32.412Z,1.27
2022-10-24T12:20:59.083Z,1.13
2022-10-24T12:23:27.463Z,1.63
2022-10-24T12:25:54.007Z,1.40
2022-10-24T12:28:20.506Z,1.20
2022-10-24T12:30:47.132Z,1.13
2022-10-24T12:33:13.774Z,0.93
2022-10-24T12:35:40.319Z,2.13
2022-10-24T12:38:06.862Z,0.97
2022-10-24T12:40:33.496Z,1.50
2022-10-24T12:43:00.113Z,1.70
2022-10-24T12:45:26.660Z,1.17
2022-10-24T12:47:53.258Z,1.50
2022-10-24T12:50:20.242Z,1.00
2022-10-24T12:52:47.132Z,1.27
2022-10-24T12:55:13.916Z,1.33
2022-10-24T12:57:40.425Z,0.83
2022-10-24T13:00:06.921Z,1.40
2022-10-24T13:02:33.495Z,1.07
2022-10-24T13:05:00.073Z,1.20
2022-10-24T13:07:26.679Z,1.10
2022-10-24T13:09:53.259Z,1.60
2022-10-24T13:12:19.805Z,1.00
2022-10-24T13:14:46.343Z,0.83
2022-10-24T13:17:12.836Z,1.37
2022-10-24T13:19:39.345Z,1.57
2022-10-24T13:22:05.857Z,0.90
2022-10-24T13:24:34.705Z,1.50
2022-10-24T13:27:01.263Z,1.17
2022-10-24T13:29:27.895Z,1.20
2022-10-24T13:31:55.845Z,1.10
2022-10-24T13:34:22.809Z,1.20
2022-10-24T13:36:49.369Z,0.80
2022-10-24T13:39:15.908Z,1.63
2022-10-24T13:41:42.430Z,1.50
2022-10-24T13:44:09.008Z,1.63
2022-10-24T13:46:36.799Z,1.83
2022-10-24T13:49:03.377Z,0.80
2022-10-24T13:51:29.918Z,1.27
2022-10-24T13:53:56.440Z,1.20
2022-10-24T13:56:22.968Z,1.50
2022-10-24T13:58:49.554Z,1.00
2022-10-24T14:01:16.232Z,1.33
2022-10-24T14:03:43.253Z,1.00
2022-10-24T14:06:09.882Z,1.50
2022-10-24T14:08:36.408Z,1.33
2022-10-24T14:11:02.967Z,1.33
2022-10-24T14:13:29.588Z,1.07
2022-10-24T14:15:56.312Z,0.70
2022-10-24T14:18:23.044Z,1.33
2022-10-24T14:20:49.581Z,1.37
2022-10-24T14:23:16.189Z,1.00
2022-10-24T14:25:42.707Z,1.80
2022-10-24T14:28:09.238Z,1.47
2022-10-24T14:30:35.777Z,1.60
2022-10-24T14:33:02.358Z,1.40
2022-10-24T14:35:28.924Z,1.40
2022-10-24T14:37:55.470Z,1.80
2022-10-24T14:40:21.961Z,1.07
2022-10-24T14:42:48.512Z,1.30
2022-10-24T14:45:15.058Z,1.37
2022-10-24T14:47:41.565Z,1.47
2022-10-24T14:50:08.088Z,1.60
2022-10-24T14:52:38.028Z,1.70
2022-10-24T14:55:04.738Z,2.33
2022-10-24T14:57:31.261Z,1.00
2022-10-24T14:59:57.911Z,1.30
2022-10-24T15:02:24.466Z,1.80
2022-10-24T15:04:51.847Z,2.33
2022-10-24T15:07:20.850Z,1.90
2022-10-24T15:09:47.419Z,1.30
2022-10-24T15:12:13.934Z,1.30
2022-10-24T15:14:47.514Z,1.80
2022-10-24T15:17:14.034Z,1.40
2022-10-24T15:19:40.576Z,1.60
2022-10-24T15:22:07.162Z,1.33
2022-10-24T15:24:33.711Z,1.60
2022-10-24T15:27:00.206Z,1.27
2022-10-24T15:29:28.728Z,1.20
2022-10-24T15:31:55.292Z,1.20
2022-10-24T15:34:22.023Z,1.10
2022-10-24T15:36:48.658Z,2.07
2022-10-24T15:39:15.242Z,1.70
2022-10-24T15:41:41.895Z,1.77
2022-10-24T15:44:08.463Z,1.20
2022-10-24T15:46:35.058Z,1.20
2022-10-24T15:49:01.570Z,1.77
2022-10-24T15:51:28.107Z,2.13
2022-10-24T15:53:54.759Z,1.77
2022-10-24T15:56:21.476Z,2.30
2022-10-24T16:01:14.478Z,1.30
2022-10-24T16:03:41.106Z,1.53
2022-10-24T16:06:07.626Z,1.13
2022-10-24T16:08:34.258Z,2.20
2022-10-24T16:11:00.793Z,1.47
2022-10-24T16:13:27.360Z,1.60
2022-10-24T16:15:54.052Z,1.57
2022-10-24T16:18:20.624Z,1.83
2022-10-24T16:20:47.312Z,1.40
2022-10-24T16:23:13.923Z,1.33
2022-10-24T16:25:40.483Z,1.73
2022-10-24T16:28:07.877Z,1.10
2022-10-24T16:30:34.500Z,1.50
2022-10-24T16:33:01.109Z,1.40
2022-10-24T16:35:27.612Z,1.77
2022-10-24T16:37:54.133Z,1.10
2022-10-24T16:40:20.811Z,1.40
2022-10-24T16:42:47.470Z,1.40
2022-10-24T16:45:14.285Z,1.63
2022-10-24T16:47:40.857Z,1.73
2022-10-24T16:50:07.447Z,1.60
2022-10-24T16:52:34.049Z,1.63
2022-10-24T16:55:00.634Z,1.60
2022-10-24T16:57:27.159Z,1.30
2022-10-24T16:59:53.670Z,1.63
2022-10-24T17:02:20.185Z,1.53
2022-10-24T17:04:46.863Z,1.97
2022-10-24T17:07:13.673Z,1.30
2022-10-24T17:09:40.443Z,1.53
2022-10-24T17:12:06.949Z,1.97
2022-10-24T17:14:33.483Z,2.27
2022-10-24T17:17:00.141Z,2.17
2022-10-24T17:19:26.793Z,2.10
2022-10-24T17:21:53.359Z,1.40
2022-10-24T17:24:19.946Z,2.53
2022-10-24T17:26:46.537Z,2.37
2022-10-24T17:29:13.249Z,2.90
2022-10-24T17:31:39.744Z,2.50
2022-10-24T17:34:06.276Z,1.80
2022-10-24T17:36:32.827Z,2.70
2022-10-24T17:38:59.366Z,1.73
2022-10-24T17:41:26.026Z,1.30
2022-10-24T17:43:52.586Z,2.03
2022-10-24T17:46:19.133Z,1.60
2022-10-24T17:48:45.701Z,1.17
2022-10-24T17:51:12.317Z,1.23
2022-10-24T17:53:38.942Z,1.40
2022-10-24T17:56:05.587Z,1.87
2022-10-24T17:58:32.438Z,1.80
2022-10-24T18:00:59.080Z,1.67
2022-10-24T18:03:27.622Z,1.60
2022-10-24T18:05:54.262Z,1.53
2022-10-24T18:08:20.790Z,2.17
2022-10-24T18:10:47.404Z,1.50
2022-10-24T18:13:13.935Z,1.70
2022-10-24T18:15:40.707Z,1.20
2022-10-24T18:18:07.908Z,1.20
2022-10-24T18:20:34.776Z,1.87
2022-10-24T18:23:01.704Z,1.07
2022-10-24T18:25:28.310Z,2.13
2022-10-24T18:27:56.240Z,1.40
2022-10-24T18:30:22.862Z,1.60
2022-10-24T18:32:50.067Z,1.20
2022-10-24T18:35:17.133Z,1.23
2022-10-24T18:37:43.727Z,1.93
2022-10-24T18:40:10.513Z,1.70
2022-10-24T18:42:37.687Z,1.60
2022-10-24T18:45:04.561Z,2.00
2022-10-24T18:47:31.563Z,2.50
2022-10-24T18:49:58.128Z,2.10
2022-10-24T18:52:24.640Z,2.07
2022-10-24T18:54:51.380Z,1.70
2022-10-24T18:57:17.868Z,0.90
2022-10-24T18:59:45.333Z,0.80
2022-10-24T19:02:11.880Z,1.20
2022-10-24T19:04:38.575Z,0.80
2022-10-24T19:07:05.204Z,0.90
2022-10-24T19:09:31.788Z,0.77
2022-10-24T19:11:58.328Z,1.17
2022-10-24T19:14:25.524Z,0.70
2022-10-24T19:16:52.029Z,0.80
2022-10-24T19:19:18.630Z,0.70
2022-10-24T19:21:46.536Z,0.80
2022-10-24T19:24:15.623Z,1.07
2022-10-24T19:26:42.110Z,0.80
2022-10-24T19:29:08.599Z,0.63
2022-10-24T19:31:35.233Z,0.60
2022-10-24T19:34:01.704Z,0.97
2022-10-24T19:36:28.254Z,1.27
2022-10-24T19:38:55.422Z,1.60
2022-10-24T19:41:21.964Z,0.80
2022-10-24T19:43:48.549Z,1.00
2022-10-24T19:46:19.832Z,2.07
2022-10-24T19:48:48.965Z,1.77
2022-10-24T19:51:15.552Z,1.13
2022-10-24T19:53:42.058Z,2.87
2022-10-24T19:56:08.683Z,1.93
2022-10-24T19:58:35.222Z,2.43
2022-10-24T20:01:01.782Z,1.47
2022-10-24T20:03:28.393Z,1.70
2022-10-24T20:05:54.953Z,1.67
2022-10-24T20:08:21.582Z,1.20
2022-10-24T20:10:48.138Z,3.70
2022-10-24T20:13:14.667Z,2.57
2022-10-24T20:15:41.197Z,1.63
2022-10-24T20:18:07.712Z,2.77
2022-10-24T20:20:34.307Z,2.20
2022-10-24T20:23:00.811Z,2.53
2022-10-24T20:25:27.353Z,3.50
2022-10-24T20:27:53.832Z,2.83
2022-10-24T20:30:20.348Z,2.23
2022-10-24T20:32:46.867Z,1.57
2022-10-24T20:35:13.449Z,2.03
2022-10-24T20:37:39.999Z,2.30
2022-10-24T20:40:06.542Z,2.80
2022-10-24T20:42:33.081Z,2.57
2022-10-24T20:44:59.667Z,2.90
2022-10-24T20:47:26.158Z,1.87
2022-10-24T20:49:52.959Z,1.80
2022-10-24T20:52:19.602Z,1.97
2022-10-24T20:54:46.087Z,1.57
2022-10-24T20:57:12.647Z,2.07
2022-10-24T20:59:39.129Z,2.83
2022-10-24T21:02:08.123Z,2.77
2022-10-24T21:04:34.733Z,2.47
2022-10-24T21:07:01.272Z,1.77
2022-10-24T21:09:29.856Z,1.67
2022-10-24T21:11:56.381Z,2.83
2022-10-24T21:14:22.943Z,1.60
2022-10-24T21:16:49.458Z,2.20
2022-10-24T21:19:15.972Z,2.60
2022-10-24T21:21:42.717Z,2.37
2022-10-24T21:24:09.220Z,1.50
2022-10-24T21:26:38.377Z,1.23
2022-10-24T21:29:20.671Z,1.20
2022-10-24T21:31:51.973Z,1.47
2022-10-24T21:34:18.513Z,0.80
2022-10-24T21:36:45.153Z,0.67
2022-10-24T21:39:11.677Z,0.90
2022-10-24T21:41:38.275Z,1.07
2022-10-24T21:44:04.859Z,1.37
2022-10-24T21:46:31.603Z,0.97
2022-10-24T21:48:58.222Z,1.67
2022-10-24T21:51:25.905Z,1.30
2022-10-24T21:53:52.395Z,1.67
2022-10-24T21:56:19.106Z,1.40
2022-10-24T21:58:45.664Z,2.20
2022-10-24T22:01:12.272Z,1.93
2022-10-24T22:03:38.882Z,2.00
2022-10-24T22:06:05.436Z,1.60
2022-10-24T22:08:31.988Z,1.67
2022-10-24T22:10:58.498Z,1.90
2022-10-24T22:13:25.113Z,1.90
2022-10-24T22:15:51.643Z,1.80
2022-10-24T22:18:18.201Z,1.90
2022-10-24T22:20:44.723Z,1.60
2022-10-24T22:23:11.294Z,1.70
2022-10-24T22:25:37.850Z,1.23
2022-10-24T22:28:04.383Z,1.20
2022-10-24T22:30:30.877Z,1.50
2022-10-24T22:32:57.424Z,1.60
2022-10-24T22:35:23.940Z,2.23
2022-10-24T22:37:50.468Z,2.03
2022-10-24T22:40:17.002Z,1.17
2022-10-24T22:42:43.619Z,1.60
2022-10-24T22:45:10.288Z,2.00
2022-10-24T22:47:36.860Z,1.20
2022-10-24T22:50:03.360Z,1.20
2022-10-24T22:52:29.951Z,1.97
2022-10-24T22:54:56.568Z,1.40
2022-10-24T22:57:23.206Z,2.30
2022-10-24T22:59:49.766Z,1.80
2022-10-24T23:02:16.454Z,1.23
2022-10-24T23:04:43.038Z,2.10
2022-10-24T23:07:09.562Z,2.23
2022-10-24T23:09:36.079Z,2.03
2022-10-24T23:12:02.596Z,1.63
2022-10-24T23:14:29.634Z,1.53
2022-10-24T23:16:56.122Z,2.50
2022-10-24T23:19:22.650Z,2.20
2022-10-24T23:21:49.407Z,2.70
2022-10-24T23:24:15.946Z,1.50
2022-10-24T23:26:42.493Z,1.70
2022-10-24T23:29:09.222Z,2.27
2022-10-24T23:31:35.698Z,1.83
2022-10-24T23:34:02.284Z,1.93
2022-10-24T23:36:30.113Z,2.73
2022-10-24T23:38:56.861Z,2.17
2022-10-24T23:41:23.363Z,1.80
2022-10-24T23:43:49.829Z,1.37
2022-10-24T23:46:16.333Z,2.13
2022-10-24T23:48:42.912Z,2.20
2022-10-24T23:51:09.437Z,1.40
2022-10-24T23:53:35.945Z,2.30
2022-10-24T23:56:02.486Z,2.53
2022-10-24T23:58:29.011Z,1.43
